EKVG Airport Information

Runway Information
Runway 13 Length 5902 ft width 98 ft
Elevation 268 ft Threshold 0 ft Heading 118
Runway 31 Length 5902 ft Width 98 ft
Elevation 252 ft Threshold 0 ft Heading 298
Airport Frequencies
Type AFIS Name AFIS Frequency 124.85 MHZ
Airport Navaids
Type NDB Name Myggenes Frequency 337 KHZ
Type NDB Name Nolso Frequency 404 KHZ
Type NDB Name Vagar Frequency 348 KHZ
Airport Weather Information & NOTAM
ADDS - METARS form results

(0725 UTC 01 June 2020)
Data provider http://aviationweather.gov/metar/data/
 
METAR text: EKVG 010720Z AUTO 35012KT 320V020 9999 BKN016/// 09/07 Q1025
Conditions at: EKVG (SORVAAG/VAGAR , DK) observed 0720 UTC 01 June 2020
Temperature: 9.0°C (48°F)
Dewpoint: 7.0°C (45°F) [RH = 87%]
Pressure (altimeter): 30.27 inches Hg (1025.0 mb)
Winds: from the N (350 degrees) at 14 MPH (12 knots; 6.2 m/s)
Visibility: 6 or more miles (10+ km)
Ceiling: 1600 feet AGL
Clouds: broken clouds at 1600 feet AGL
Weather: no significant weather observed at this time

METAR text: EKVG 010650Z AUTO 35011KT 9999 BKN013/// BKN051/// 09/08 Q1025
Conditions at: EKVG (SORVAAG/VAGAR , DK) observed 0650 UTC 01 June 2020
Temperature: 9.0°C (48°F)
Dewpoint: 8.0°C (46°F) [RH = 93%]
Pressure (altimeter): 30.27 inches Hg (1025.0 mb)
Winds: from the N (350 degrees) at 13 MPH (11 knots; 5.7 m/s)
Visibility: 6 or more miles (10+ km)
Ceiling: 1300 feet AGL
Clouds: broken clouds at 1300 feet AGL
broken clouds at 5100 feet AGL
Weather: no significant weather observed at this time

Forecast for: EKVG (SORVAAG/VAGAR , DK)
Text: TAF EKVG 010522Z 0106/0115 31006KT 9999 OVC001
Forecast period: 0600 to 0800 UTC 01 June 2020
Forecast type: FROM: standard forecast or significant change
Winds: from the NW (310 degrees) at 7 MPH (6 knots; 3.1 m/s)
Visibility: 6 or more miles 10+ km)
Ceiling: 100 feet AGL
Clouds: overcast cloud deck at 100 feet AGL
Weather: no significant weather forecast for this period
Text: TEMPO 0106/0107 0900 FG VV002
Forecast period: 0600 to 0700 UTC 01 June 2020
Forecast type: TEMPORARY: The following changes expected for less than half the time period
Visibility: 0.56 miles (0.90 km)
Ceiling: indefinite ceiling with vertical visibility of 200 feet AGL
Clouds: obscured sky
Weather: FG  (fog)
Text: BECMG 0108/0110 SCT018
Forecast period: 0800 to 1500 UTC 01 June 2020
Forecast type: BECOMING: Conditions expected to become as follows by 1000 UTC 01 June 2020
Winds: from the NW (310 degrees) at 7 MPH (6 knots; 3.1 m/s)
Visibility: 6 or more miles 10+ km)
Ceiling: at least 12,000 feet AGL
Clouds: scattered clouds at 1800 feet AGL
Weather: no significant weather forecast for this period